createdAt,value
2018-06-29T00:00:37.833Z,0.00
2018-06-29T00:01:37.817Z,0.00
2018-06-29T00:02:37.809Z,0.00
2018-06-29T00:03:37.787Z,0.00
2018-06-29T00:04:37.772Z,0.00
2018-06-29T00:05:37.771Z,0.00
2018-06-29T00:06:37.749Z,0.00
2018-06-29T00:07:37.736Z,0.00
2018-06-29T00:08:37.723Z,0.00
2018-06-29T00:09:37.724Z,0.00
2018-06-29T00:10:37.703Z,0.00
2018-06-29T00:11:37.695Z,0.00
2018-06-29T00:12:37.682Z,0.00
2018-06-29T00:13:37.662Z,0.00
2018-06-29T00:14:37.656Z,0.00
2018-06-29T00:15:37.643Z,0.00
2018-06-29T00:16:37.715Z,0.00
2018-06-29T00:17:37.611Z,0.00
2018-06-29T00:18:37.601Z,0.00
2018-06-29T00:19:37.591Z,0.00
2018-06-29T00:20:37.582Z,0.00
2018-06-29T00:21:37.563Z,0.00
2018-06-29T00:22:37.547Z,0.00
2018-06-29T00:23:37.542Z,0.00
2018-06-29T00:24:37.524Z,0.00
2018-06-29T00:25:37.512Z,0.00
2018-06-29T00:26:37.499Z,0.00
2018-06-29T00:27:37.499Z,0.00
2018-06-29T00:28:37.482Z,0.00
2018-06-29T00:29:37.471Z,0.00
2018-06-29T00:30:37.450Z,0.00
2018-06-29T00:31:37.453Z,0.00
2018-06-29T00:32:37.424Z,0.00
2018-06-29T00:33:37.411Z,0.00
2018-06-29T00:34:37.402Z,0.00
2018-06-29T00:35:37.390Z,0.00
2018-06-29T00:36:37.380Z,0.00
2018-06-29T00:37:37.369Z,0.00
2018-06-29T00:38:37.351Z,0.00
2018-06-29T00:39:37.338Z,0.00
2018-06-29T00:40:37.325Z,0.00
2018-06-29T00:41:37.313Z,0.00
2018-06-29T00:42:37.303Z,0.00
2018-06-29T00:43:37.291Z,0.00
2018-06-29T00:44:37.279Z,0.00
2018-06-29T00:45:37.267Z,0.00
2018-06-29T00:46:37.250Z,0.00
2018-06-29T00:47:37.251Z,0.00
2018-06-29T00:48:37.232Z,0.00
2018-06-29T00:49:37.216Z,0.00
2018-06-29T00:50:37.199Z,0.00
2018-06-29T00:51:37.192Z,0.00
2018-06-29T00:52:37.185Z,0.00
2018-06-29T00:53:37.164Z,0.00
2018-06-29T00:54:37.215Z,0.00
2018-06-29T00:55:37.138Z,0.00
2018-06-29T00:56:37.123Z,0.00
2018-06-29T00:57:37.117Z,0.00
2018-06-29T00:58:37.097Z,0.00
2018-06-29T00:59:37.084Z,0.00
2018-06-29T01:00:37.078Z,0.00
2018-06-29T01:01:37.062Z,0.00
2018-06-29T01:02:37.058Z,0.00
2018-06-29T01:03:37.036Z,0.00
2018-06-29T01:04:37.026Z,0.00
2018-06-29T01:05:37.014Z,0.00
2018-06-29T01:06:37.003Z,0.00
2018-06-29T01:07:36.994Z,0.00
2018-06-29T01:08:36.972Z,0.00
2018-06-29T01:09:36.968Z,0.00
2018-06-29T01:10:36.943Z,0.00
2018-06-29T01:11:36.938Z,0.00
2018-06-29T01:12:36.927Z,0.00
2018-06-29T01:13:36.915Z,0.00
2018-06-29T01:14:36.895Z,0.00
2018-06-29T01:15:36.892Z,0.00
2018-06-29T01:16:36.873Z,0.00
2018-06-29T01:17:36.864Z,0.00
2018-06-29T01:18:36.851Z,0.00
2018-06-29T01:19:36.841Z,0.00
2018-06-29T01:20:36.827Z,0.00
2018-06-29T01:21:36.810Z,0.00
2018-06-29T01:22:36.796Z,0.00
2018-06-29T01:23:36.784Z,0.00
2018-06-29T01:24:36.771Z,0.00
2018-06-29T01:25:36.768Z,0.00
2018-06-29T01:26:36.745Z,0.00
2018-06-29T01:27:36.735Z,0.00
2018-06-29T01:28:36.744Z,0.00
2018-06-29T01:29:36.712Z,0.00
2018-06-29T01:30:36.698Z,0.00
2018-06-29T01:31:36.684Z,0.00
2018-06-29T01:32:36.669Z,0.00
2018-06-29T01:33:36.660Z,0.00
2018-06-29T01:34:36.643Z,0.00
2018-06-29T01:35:36.631Z,0.00
2018-06-29T01:36:36.621Z,0.00
2018-06-29T01:37:36.605Z,0.00
2018-06-29T01:38:36.598Z,0.00
2018-06-29T01:39:36.580Z,0.00
2018-06-29T01:40:36.575Z,0.00
2018-06-29T01:41:36.558Z,0.00
2018-06-29T01:42:36.567Z,0.00
2018-06-29T01:43:36.529Z,0.00
2018-06-29T01:44:36.522Z,0.00
2018-06-29T01:45:36.503Z,0.00
2018-06-29T01:46:36.490Z,0.00
2018-06-29T01:47:36.481Z,0.00
2018-06-29T01:48:36.465Z,0.00
2018-06-29T01:49:36.456Z,0.00
2018-06-29T01:50:36.443Z,0.00
2018-06-29T01:51:36.429Z,0.00
2018-06-29T01:52:36.451Z,0.00
2018-06-29T01:53:36.404Z,0.00
2018-06-29T01:54:36.394Z,0.00
2018-06-29T01:55:36.376Z,0.00
2018-06-29T01:56:36.363Z,0.00
2018-06-29T01:57:36.356Z,0.00
2018-06-29T01:58:36.340Z,0.00
2018-06-29T01:59:36.343Z,0.00
2018-06-29T02:00:36.316Z,0.00
2018-06-29T02:01:36.307Z,0.00
2018-06-29T02:02:36.290Z,0.00
2018-06-29T02:03:36.280Z,0.00
2018-06-29T02:04:36.268Z,0.00
2018-06-29T02:05:36.249Z,0.00
2018-06-29T02:06:36.236Z,0.00
2018-06-29T02:07:36.232Z,0.00
2018-06-29T02:08:36.217Z,0.00
2018-06-29T02:09:36.201Z,0.00
2018-06-29T02:10:36.187Z,0.00
2018-06-29T02:11:36.179Z,0.00
2018-06-29T02:12:36.160Z,0.00
2018-06-29T02:13:36.153Z,0.00
2018-06-29T02:14:36.134Z,0.00
2018-06-29T02:15:36.135Z,0.00
2018-06-29T02:16:36.122Z,0.00
2018-06-29T02:17:36.097Z,0.00
2018-06-29T02:18:36.086Z,0.00
2018-06-29T02:19:36.072Z,0.00
2018-06-29T02:20:36.062Z,0.00
2018-06-29T02:21:36.046Z,0.00
2018-06-29T02:22:36.043Z,0.00
2018-06-29T02:23:36.024Z,0.00
2018-06-29T02:24:36.014Z,0.00
2018-06-29T02:25:36.002Z,0.00
2018-06-29T02:26:35.988Z,0.00
2018-06-29T02:27:36.004Z,0.00
2018-06-29T02:28:35.956Z,0.00
2018-06-29T02:29:35.956Z,0.00
2018-06-29T02:30:35.998Z,0.00
2018-06-29T02:31:35.924Z,0.00
2018-06-29T02:32:35.905Z,0.00
2018-06-29T02:33:35.901Z,0.00
2018-06-29T02:34:35.885Z,0.00
2018-06-29T02:35:35.867Z,0.00
2018-06-29T02:36:35.860Z,0.00
2018-06-29T02:37:35.844Z,0.00
2018-06-29T02:38:35.834Z,0.00
2018-06-29T02:39:35.836Z,0.00
2018-06-29T02:40:35.809Z,0.00
2018-06-29T02:41:35.794Z,0.00
2018-06-29T02:42:35.777Z,0.00
2018-06-29T02:43:35.770Z,0.00
2018-06-29T02:44:35.754Z,0.00
2018-06-29T02:45:35.742Z,0.00
2018-06-29T02:46:35.734Z,0.00
2018-06-29T02:47:35.716Z,0.00
2018-06-29T02:48:35.707Z,0.00
2018-06-29T02:49:35.696Z,0.00
2018-06-29T02:50:35.676Z,0.00
2018-06-29T02:51:35.660Z,0.00
2018-06-29T02:52:35.650Z,0.00
2018-06-29T02:53:35.641Z,0.00
2018-06-29T02:54:35.628Z,0.00
2018-06-29T02:55:35.619Z,0.00
2018-06-29T02:56:35.600Z,0.00
2018-06-29T02:57:35.592Z,0.00
2018-06-29T02:58:35.588Z,0.00
2018-06-29T02:59:35.561Z,0.00
2018-06-29T03:00:35.558Z,0.00
2018-06-29T03:01:35.541Z,0.00
2018-06-29T03:02:35.530Z,0.00
2018-06-29T03:03:35.516Z,0.00
2018-06-29T03:04:35.499Z,0.00
2018-06-29T03:05:35.488Z,0.00
2018-06-29T03:06:35.477Z,0.00
2018-06-29T03:07:35.464Z,0.00
2018-06-29T03:08:35.445Z,0.00
2018-06-29T03:09:35.439Z,0.00
2018-06-29T03:10:35.426Z,0.00
2018-06-29T03:11:35.407Z,0.00
2018-06-29T03:12:35.401Z,0.00
2018-06-29T03:13:35.389Z,0.00
2018-06-29T03:14:35.372Z,0.00
2018-06-29T03:15:35.362Z,5.63
2018-06-29T03:16:35.343Z,5.63
2018-06-29T03:17:35.339Z,5.63
2018-06-29T03:18:35.320Z,5.63
2018-06-29T03:19:35.307Z,5.63
2018-06-29T03:20:35.292Z,5.63
2018-06-29T03:21:35.279Z,5.63
2018-06-29T03:22:35.266Z,5.63
2018-06-29T03:23:35.254Z,5.63
2018-06-29T03:24:35.248Z,5.63
2018-06-29T03:25:35.228Z,11.25
2018-06-29T03:26:35.218Z,11.25
2018-06-29T03:27:35.230Z,11.25
2018-06-29T03:28:35.196Z,11.25
2018-06-29T03:29:35.176Z,11.25
2018-06-29T03:30:35.169Z,16.88
2018-06-29T03:31:35.151Z,16.88
2018-06-29T03:32:35.138Z,16.88
2018-06-29T03:33:35.126Z,16.88
2018-06-29T03:34:35.113Z,16.88
2018-06-29T03:35:35.107Z,22.50
2018-06-29T03:36:35.099Z,22.50
2018-06-29T03:37:35.084Z,22.50
2018-06-29T03:38:35.067Z,22.50
2018-06-29T03:39:35.047Z,22.50
2018-06-29T03:40:35.100Z,22.50
2018-06-29T03:41:35.022Z,22.50
2018-06-29T03:42:35.009Z,22.50
2018-06-29T03:43:35.001Z,22.50
2018-06-29T03:44:34.985Z,22.50
2018-06-29T03:45:34.970Z,22.50
2018-06-29T03:46:34.955Z,22.50
2018-06-29T03:47:34.950Z,28.13
2018-06-29T03:48:34.933Z,28.13
2018-06-29T03:49:34.984Z,28.13
2018-06-29T03:50:34.909Z,28.13
2018-06-29T03:51:34.896Z,28.13
2018-06-29T03:52:34.883Z,28.13
2018-06-29T03:53:34.870Z,28.13
2018-06-29T03:54:34.854Z,22.50
2018-06-29T03:55:34.841Z,22.50
2018-06-29T03:56:34.832Z,22.50
2018-06-29T03:57:34.822Z,22.50
2018-06-29T03:58:34.803Z,22.50
2018-06-29T03:59:34.794Z,22.50
2018-06-29T04:00:34.777Z,16.88
2018-06-29T04:01:34.768Z,16.88
2018-06-29T04:02:34.752Z,16.88
2018-06-29T04:03:34.745Z,16.88
2018-06-29T04:04:34.724Z,22.50
2018-06-29T04:05:34.717Z,22.50
2018-06-29T04:06:34.707Z,22.50
2018-06-29T04:07:34.691Z,22.50
2018-06-29T04:08:34.678Z,22.50
2018-06-29T04:09:34.663Z,22.50
2018-06-29T04:10:34.655Z,28.13
2018-06-29T04:11:34.644Z,28.13
2018-06-29T04:12:34.630Z,28.13
2018-06-29T04:13:34.618Z,28.13
2018-06-29T04:14:34.609Z,28.13
2018-06-29T04:15:34.586Z,28.13
2018-06-29T04:16:34.576Z,22.50
2018-06-29T04:17:34.563Z,22.50
2018-06-29T04:18:34.557Z,28.13
2018-06-29T04:19:34.544Z,28.13
2018-06-29T04:20:34.525Z,28.13
2018-06-29T04:21:34.512Z,33.75
2018-06-29T04:22:34.499Z,33.75
2018-06-29T04:23:34.490Z,33.75
2018-06-29T04:24:34.474Z,33.75
2018-06-29T04:25:34.467Z,39.38
2018-06-29T04:26:34.504Z,39.38
2018-06-29T04:27:34.435Z,45.00
2018-06-29T04:28:34.418Z,50.63
2018-06-29T04:29:34.412Z,56.25
2018-06-29T04:30:34.397Z,61.88
2018-06-29T04:31:34.384Z,61.88
2018-06-29T04:32:34.374Z,61.88
2018-06-29T04:33:34.360Z,61.88
2018-06-29T04:34:34.346Z,67.50
2018-06-29T04:35:34.340Z,67.50
2018-06-29T04:36:34.327Z,67.50
2018-06-29T04:37:34.326Z,73.13
2018-06-29T04:38:34.301Z,73.13
2018-06-29T04:39:34.291Z,73.13
2018-06-29T04:40:34.271Z,73.13
2018-06-29T04:41:34.260Z,73.13
2018-06-29T04:42:34.244Z,73.13
2018-06-29T04:43:34.238Z,73.13
2018-06-29T04:44:34.218Z,73.13
2018-06-29T04:45:34.205Z,73.13
2018-06-29T04:46:34.200Z,73.13
2018-06-29T04:47:34.180Z,78.75
2018-06-29T04:48:34.177Z,84.38
2018-06-29T04:49:34.158Z,84.38
2018-06-29T04:50:34.148Z,90.00
2018-06-29T04:51:34.135Z,95.63
2018-06-29T04:52:34.126Z,101.25
2018-06-29T04:53:34.107Z,101.25
2018-06-29T04:54:34.091Z,101.25
2018-06-29T04:55:34.090Z,101.25
2018-06-29T04:56:34.069Z,101.25
2018-06-29T04:57:34.063Z,101.25
2018-06-29T04:58:34.047Z,101.25
2018-06-29T04:59:34.033Z,101.25
2018-06-29T05:00:34.018Z,106.88
2018-06-29T05:01:34.015Z,106.88
2018-06-29T05:02:33.995Z,112.50
2018-06-29T05:03:33.990Z,123.75
2018-06-29T05:04:33.988Z,123.75
2018-06-29T05:05:33.957Z,123.75
2018-06-29T05:06:33.950Z,129.38
2018-06-29T05:07:33.931Z,129.38
2018-06-29T05:08:33.924Z,129.38
2018-06-29T05:09:33.908Z,123.75
2018-06-29T05:10:33.899Z,123.75
2018-06-29T05:11:33.885Z,123.75
2018-06-29T05:12:33.874Z,123.75
2018-06-29T05:13:33.873Z,140.63
2018-06-29T05:14:33.852Z,151.88
2018-06-29T05:15:33.877Z,157.50
2018-06-29T05:16:34.584Z,168.75
2018-06-29T05:17:33.812Z,174.38
2018-06-29T05:18:33.802Z,174.38
2018-06-29T05:19:33.789Z,168.75
2018-06-29T05:20:33.793Z,163.13
2018-06-29T05:21:33.780Z,157.50
2018-06-29T05:22:33.757Z,157.50
2018-06-29T05:23:33.747Z,163.13
2018-06-29T05:24:33.732Z,163.13
2018-06-29T05:25:33.719Z,163.13
2018-06-29T05:26:33.709Z,168.75
2018-06-29T05:27:33.690Z,163.13
2018-06-29T05:28:33.684Z,163.13
2018-06-29T05:29:33.669Z,157.50
2018-06-29T05:30:33.659Z,157.50
2018-06-29T05:31:33.652Z,157.50
2018-06-29T05:32:33.640Z,163.13
2018-06-29T05:33:33.633Z,180.00
2018-06-29T05:34:33.613Z,180.00
2018-06-29T05:35:33.598Z,180.00
2018-06-29T05:36:33.590Z,174.38
2018-06-29T05:37:33.591Z,168.75
2018-06-29T05:38:33.566Z,163.13
2018-06-29T05:39:33.553Z,163.13
2018-06-29T05:40:33.541Z,163.13
2018-06-29T05:41:33.642Z,163.13
2018-06-29T05:42:33.568Z,168.75
2018-06-29T05:43:33.533Z,174.38
2018-06-29T05:44:33.496Z,174.38
2018-06-29T05:45:33.485Z,180.00
2018-06-29T05:46:33.478Z,174.38
2018-06-29T05:47:33.460Z,163.13
2018-06-29T05:48:33.464Z,157.50
2018-06-29T05:49:33.438Z,157.50
2018-06-29T05:50:33.425Z,163.13
2018-06-29T05:51:33.419Z,163.13
2018-06-29T05:52:33.406Z,168.75
2018-06-29T05:53:33.393Z,174.38
2018-06-29T05:54:33.377Z,174.38
2018-06-29T05:55:33.375Z,174.38
2018-06-29T05:56:33.358Z,180.00
2018-06-29T05:57:33.386Z,191.25
2018-06-29T05:58:33.335Z,208.13
2018-06-29T05:59:33.332Z,219.38
2018-06-29T06:00:33.315Z,230.63
2018-06-29T06:01:33.303Z,236.25
2018-06-29T06:02:33.288Z,230.63
2018-06-29T06:03:33.280Z,236.25
2018-06-29T06:04:33.294Z,241.88
2018-06-29T06:05:33.255Z,230.63
2018-06-29T06:06:33.239Z,236.25
2018-06-29T06:07:33.240Z,236.25
2018-06-29T06:08:33.219Z,247.50
2018-06-29T06:09:33.214Z,258.75
2018-06-29T06:10:33.200Z,275.63
2018-06-29T06:11:33.187Z,298.13
2018-06-29T06:12:33.181Z,309.38
2018-06-29T06:13:33.172Z,315.00
2018-06-29T06:14:33.165Z,326.25
2018-06-29T06:15:33.146Z,343.13
2018-06-29T06:16:33.137Z,348.75
2018-06-29T06:17:33.144Z,360.00
2018-06-29T06:18:33.113Z,376.88
2018-06-29T06:19:33.101Z,371.25
2018-06-29T06:20:33.099Z,376.88
2018-06-29T06:21:33.092Z,382.50
2018-06-29T06:22:33.069Z,388.13
2018-06-29T06:23:33.063Z,405.00
2018-06-29T06:24:33.050Z,410.63
2018-06-29T06:25:33.047Z,421.88
2018-06-29T06:26:33.033Z,444.38
2018-06-29T06:27:33.021Z,450.00
2018-06-29T06:28:33.015Z,444.38
2018-06-29T06:29:32.999Z,444.38
2018-06-29T06:30:32.998Z,450.00
2018-06-29T06:31:32.982Z,472.50
2018-06-29T06:32:32.972Z,483.75
2018-06-29T06:33:32.963Z,495.00
2018-06-29T06:34:32.954Z,495.00
2018-06-29T06:35:32.943Z,500.63
2018-06-29T06:36:32.935Z,500.63
2018-06-29T06:37:32.924Z,506.25
2018-06-29T06:38:32.915Z,517.50
2018-06-29T06:39:32.900Z,528.75
2018-06-29T06:40:32.891Z,523.13
2018-06-29T06:41:32.888Z,517.50
2018-06-29T06:42:32.875Z,511.88
2018-06-29T06:43:32.864Z,523.13
2018-06-29T06:44:32.858Z,540.00
2018-06-29T06:45:32.848Z,562.50
2018-06-29T06:46:32.841Z,579.38
2018-06-29T06:47:32.837Z,601.88
2018-06-29T06:48:32.816Z,618.75
2018-06-29T06:49:32.810Z,624.38
2018-06-29T06:50:32.804Z,630.00
2018-06-29T06:51:32.794Z,635.63
2018-06-29T06:52:32.788Z,618.75
2018-06-29T06:53:32.819Z,624.38
2018-06-29T06:54:32.766Z,618.75
2018-06-29T06:55:32.763Z,624.38
2018-06-29T06:56:32.750Z,635.63
2018-06-29T06:57:32.743Z,641.25
2018-06-29T06:58:32.737Z,635.63
2018-06-29T06:59:32.793Z,635.63
2018-06-29T07:00:32.729Z,641.25
2018-06-29T07:01:32.706Z,652.50
2018-06-29T07:02:32.704Z,663.75
2018-06-29T07:03:32.698Z,680.63
2018-06-29T07:04:32.685Z,691.88
2018-06-29T07:05:32.681Z,703.13
2018-06-29T07:06:32.665Z,720.00
2018-06-29T07:07:32.656Z,736.88
2018-06-29T07:08:32.656Z,736.88
2018-06-29T07:09:32.643Z,736.88
2018-06-29T07:10:32.643Z,736.88
2018-06-29T07:11:32.635Z,708.75
2018-06-29T07:12:32.633Z,691.88
2018-06-29T07:13:32.615Z,675.00
2018-06-29T07:14:32.612Z,663.75
2018-06-29T07:15:32.598Z,663.75
2018-06-29T07:16:32.592Z,658.13
2018-06-29T07:17:32.592Z,646.88
2018-06-29T07:18:32.582Z,646.88
2018-06-29T07:19:32.576Z,663.75
2018-06-29T07:20:32.563Z,691.88
2018-06-29T07:21:32.560Z,708.75
2018-06-29T07:22:32.547Z,725.63
2018-06-29T07:23:32.551Z,776.25
2018-06-29T07:24:32.555Z,787.50
2018-06-29T07:25:32.534Z,793.13
2018-06-29T07:26:32.521Z,804.38
2018-06-29T07:27:32.512Z,843.75
2018-06-29T07:28:32.512Z,860.63
2018-06-29T07:29:32.499Z,888.75
2018-06-29T07:30:32.493Z,793.13
2018-06-29T07:31:32.488Z,810.00
2018-06-29T07:32:32.478Z,888.75
2018-06-29T07:33:32.472Z,871.88
2018-06-29T07:34:32.471Z,849.38
2018-06-29T07:35:32.465Z,810.00
2018-06-29T07:36:32.459Z,781.88
2018-06-29T07:37:32.459Z,742.50
2018-06-29T07:38:32.487Z,736.88
2018-06-29T07:39:32.440Z,720.00
2018-06-29T07:40:32.440Z,686.25
2018-06-29T07:41:32.438Z,675.00
2018-06-29T07:42:32.428Z,663.75
2018-06-29T07:43:32.428Z,641.25
2018-06-29T07:44:32.420Z,607.50
2018-06-29T07:45:32.414Z,579.38
2018-06-29T07:46:32.406Z,545.63
2018-06-29T07:47:32.402Z,506.25
2018-06-29T07:48:32.398Z,489.38
2018-06-29T07:49:32.399Z,444.38
2018-06-29T07:50:32.392Z,433.13
2018-06-29T07:51:32.382Z,427.50
2018-06-29T07:52:32.379Z,421.88
2018-06-29T07:53:32.379Z,421.88
2018-06-29T07:54:32.373Z,427.50
2018-06-29T07:55:32.366Z,421.88
2018-06-29T07:56:32.365Z,410.63
2018-06-29T07:57:32.373Z,399.38
2018-06-29T07:58:32.375Z,393.75
2018-06-29T07:59:32.350Z,388.13
2018-06-29T08:00:32.350Z,388.13
2018-06-29T08:01:32.354Z,388.13
2018-06-29T08:02:32.338Z,388.13
2018-06-29T08:03:32.331Z,388.13
2018-06-29T08:04:32.335Z,376.88
2018-06-29T08:05:32.325Z,376.88
2018-06-29T08:06:32.315Z,371.25
2018-06-29T08:07:32.321Z,365.63
2018-06-29T08:08:32.315Z,365.63
2018-06-29T08:09:32.315Z,365.63
2018-06-29T08:10:32.307Z,365.63
2018-06-29T08:11:32.305Z,365.63
2018-06-29T08:12:32.304Z,365.63
2018-06-29T08:13:32.292Z,371.25
2018-06-29T08:14:32.287Z,371.25
2018-06-29T08:15:32.281Z,371.25
2018-06-29T08:16:32.279Z,371.25
2018-06-29T08:17:32.274Z,371.25
2018-06-29T08:18:32.273Z,365.63
2018-06-29T08:19:32.266Z,365.63
2018-06-29T08:20:32.269Z,365.63
2018-06-29T08:21:32.262Z,360.00
2018-06-29T08:22:32.251Z,360.00
2018-06-29T08:23:32.241Z,360.00
2018-06-29T08:24:32.242Z,360.00
2018-06-29T08:25:32.241Z,360.00
2018-06-29T08:26:32.238Z,360.00
2018-06-29T08:27:32.235Z,360.00
2018-06-29T08:28:32.235Z,360.00
2018-06-29T08:29:32.226Z,360.00
2018-06-29T08:30:32.219Z,360.00
2018-06-29T08:31:32.215Z,360.00
2018-06-29T08:32:32.206Z,360.00
2018-06-29T08:33:32.217Z,360.00
2018-06-29T08:34:32.206Z,360.00
2018-06-29T08:35:32.209Z,360.00
2018-06-29T08:36:32.190Z,365.63
2018-06-29T08:37:32.197Z,365.63
2018-06-29T08:38:32.199Z,365.63
2018-06-29T08:39:32.184Z,365.63
2018-06-29T08:40:32.186Z,365.63
2018-06-29T08:41:32.178Z,365.63
2018-06-29T08:42:32.179Z,365.63
2018-06-29T08:43:32.168Z,365.63
2018-06-29T08:44:32.158Z,376.88
2018-06-29T08:45:32.158Z,376.88
2018-06-29T08:46:32.159Z,371.25
2018-06-29T08:47:32.152Z,376.88
2018-06-29T08:48:32.149Z,376.88
2018-06-29T08:49:32.184Z,376.88
2018-06-29T08:50:32.140Z,376.88
2018-06-29T08:51:32.133Z,382.50
2018-06-29T08:52:32.127Z,382.50
2018-06-29T08:53:32.132Z,382.50
2018-06-29T08:54:32.125Z,382.50
2018-06-29T08:55:32.123Z,388.13
2018-06-29T08:56:32.120Z,388.13
2018-06-29T08:57:32.108Z,388.13
2018-06-29T08:58:32.107Z,388.13
2018-06-29T08:59:32.104Z,393.75
2018-06-29T09:00:32.105Z,393.75
2018-06-29T09:01:32.094Z,393.75
2018-06-29T09:02:32.092Z,393.75
2018-06-29T09:03:32.088Z,399.38
2018-06-29T09:04:32.081Z,399.38
2018-06-29T09:05:32.104Z,399.38
2018-06-29T09:06:32.076Z,405.00
2018-06-29T09:07:32.069Z,405.00
2018-06-29T09:08:32.066Z,405.00
2018-06-29T09:09:32.069Z,410.63
2018-06-29T09:10:32.063Z,416.25
2018-06-29T09:11:32.063Z,416.25
2018-06-29T09:12:32.050Z,416.25
2018-06-29T09:13:32.051Z,416.25
2018-06-29T09:14:32.042Z,421.88
2018-06-29T09:15:32.054Z,421.88
2018-06-29T09:16:32.035Z,421.88
2018-06-29T09:17:32.032Z,421.88
2018-06-29T09:18:32.026Z,421.88
2018-06-29T09:19:32.027Z,427.50
2018-06-29T09:20:32.018Z,427.50
2018-06-29T09:21:32.016Z,433.13
2018-06-29T09:22:32.016Z,433.13
2018-06-29T09:23:32.006Z,438.75
2018-06-29T09:24:32.006Z,433.13
2018-06-29T09:25:32.010Z,433.13
2018-06-29T09:26:31.999Z,433.13
2018-06-29T09:27:31.996Z,438.75
2018-06-29T09:28:31.986Z,444.38
2018-06-29T09:29:31.986Z,438.75
2018-06-29T09:30:31.988Z,438.75
2018-06-29T09:31:31.980Z,444.38
2018-06-29T09:32:31.974Z,444.38
2018-06-29T09:33:31.971Z,450.00
2018-06-29T09:34:31.969Z,450.00
2018-06-29T09:35:31.962Z,455.63
2018-06-29T09:36:31.958Z,461.25
2018-06-29T09:37:31.959Z,466.88
2018-06-29T09:38:31.953Z,472.50
2018-06-29T09:39:31.945Z,472.50
2018-06-29T09:40:31.941Z,478.13
2018-06-29T09:41:31.942Z,483.75
2018-06-29T09:42:31.996Z,483.75
2018-06-29T09:43:31.932Z,489.38
2018-06-29T09:44:31.929Z,495.00
2018-06-29T09:45:31.926Z,500.63
2018-06-29T09:46:31.919Z,517.50
2018-06-29T09:47:31.913Z,551.25
2018-06-29T09:48:31.925Z,601.88
2018-06-29T09:49:31.909Z,658.13
2018-06-29T09:50:31.900Z,669.38
2018-06-29T09:51:31.894Z,658.13
2018-06-29T09:52:31.894Z,675.00
2018-06-29T09:53:31.894Z,731.25
2018-06-29T09:54:31.885Z,753.75
2018-06-29T09:55:31.891Z,748.13
2018-06-29T09:56:31.884Z,731.25
2018-06-29T09:57:31.882Z,652.50
2018-06-29T09:58:31.872Z,568.13
2018-06-29T09:59:31.872Z,545.63
2018-06-29T10:00:31.924Z,596.25
2018-06-29T10:01:31.983Z,601.88
2018-06-29T10:03:31.856Z,585.00
2018-06-29T10:04:31.857Z,579.38
2018-06-29T10:05:31.853Z,568.13
2018-06-29T10:06:31.909Z,506.25
2018-06-29T10:07:31.850Z,579.38
2018-06-29T10:08:31.855Z,585.00
2018-06-29T10:09:31.843Z,596.25
2018-06-29T10:10:31.847Z,613.13
2018-06-29T10:11:31.852Z,624.38
2018-06-29T10:12:31.838Z,630.00
2018-06-29T10:13:31.837Z,641.25
2018-06-29T10:14:32.020Z,669.38
2018-06-29T10:15:31.824Z,725.63
2018-06-29T10:16:31.831Z,759.38
2018-06-29T10:17:31.831Z,759.38
2018-06-29T10:18:31.818Z,759.38
2018-06-29T10:19:31.833Z,759.38
2018-06-29T10:20:31.828Z,742.50
2018-06-29T10:21:31.823Z,748.13
2018-06-29T10:22:31.842Z,759.38
2018-06-29T10:23:31.814Z,793.13
2018-06-29T10:24:31.805Z,855.00
2018-06-29T10:25:31.879Z,894.38
2018-06-29T10:26:31.802Z,995.63
2018-06-29T10:27:31.802Z,1125.00
2018-06-29T10:28:31.805Z,1175.63
2018-06-29T10:29:31.817Z,1186.88
2018-06-29T10:30:31.797Z,1231.88
2018-06-29T10:31:31.799Z,1333.13
2018-06-29T10:32:31.803Z,1434.38
2018-06-29T10:33:31.799Z,1530.00
2018-06-29T10:34:31.796Z,1710.00
2018-06-29T10:35:31.799Z,1518.75
2018-06-29T10:36:31.793Z,1068.75
2018-06-29T10:37:31.792Z,1051.88
2018-06-29T10:38:31.792Z,2075.63
2018-06-29T10:39:31.792Z,2458.13
2018-06-29T10:40:31.802Z,2390.63
2018-06-29T10:41:31.819Z,2182.50
2018-06-29T10:42:31.802Z,1479.38
2018-06-29T10:43:31.798Z,1181.25
2018-06-29T10:44:31.833Z,961.88
2018-06-29T10:45:31.795Z,877.50
2018-06-29T10:46:31.795Z,933.75
2018-06-29T10:47:31.798Z,1518.75
2018-06-29T10:48:31.799Z,1546.88
2018-06-29T10:49:31.793Z,1361.25
2018-06-29T10:50:31.799Z,1366.88
2018-06-29T10:51:31.798Z,2289.38
2018-06-29T10:52:31.792Z,1496.25
2018-06-29T10:53:31.793Z,1878.75
2018-06-29T10:54:31.793Z,1102.50
2018-06-29T10:55:31.792Z,2430.00
2018-06-29T10:56:31.803Z,2396.25
2018-06-29T10:57:31.805Z,2345.63
2018-06-29T10:58:31.830Z,2278.13
2018-06-29T10:59:31.789Z,2205.00
2018-06-29T11:00:31.799Z,2182.50
2018-06-29T11:01:31.799Z,2176.88
2018-06-29T11:02:31.805Z,2182.50
2018-06-29T11:03:31.796Z,2148.75
2018-06-29T11:04:31.796Z,2098.13
2018-06-29T11:05:31.834Z,2182.50
2018-06-29T11:06:31.801Z,2160.00
2018-06-29T11:07:31.809Z,2244.38
2018-06-29T11:08:31.805Z,2317.50
2018-06-29T11:09:31.809Z,2334.38
2018-06-29T11:10:31.812Z,2340.00
2018-06-29T11:11:31.818Z,2424.38
2018-06-29T11:12:31.818Z,2446.88
2018-06-29T11:13:31.828Z,2778.75
2018-06-29T11:14:31.830Z,5107.50
2018-06-29T11:15:31.829Z,7323.75
2018-06-29T11:16:31.834Z,6418.13
2018-06-29T11:17:31.844Z,5670.00
2018-06-29T11:18:31.844Z,5450.63
2018-06-29T11:19:31.847Z,5006.25
2018-06-29T11:20:31.860Z,1417.50
2018-06-29T11:21:31.895Z,1546.88
2018-06-29T11:22:31.885Z,1198.13
2018-06-29T11:23:31.867Z,4410.00
2018-06-29T11:24:31.870Z,4483.13
2018-06-29T11:25:31.879Z,3690.00
2018-06-29T11:26:31.879Z,5641.88
2018-06-29T11:27:31.882Z,2570.63
2018-06-29T11:28:31.894Z,2362.50
2018-06-29T11:29:31.897Z,5433.75
2018-06-29T11:30:31.902Z,5281.88
2018-06-29T11:31:31.905Z,5186.25
2018-06-29T11:32:31.907Z,4713.75
2018-06-29T11:33:31.920Z,5360.63
2018-06-29T11:34:31.914Z,5332.50
2018-06-29T11:35:31.919Z,5281.88
2018-06-29T11:36:31.926Z,5349.38
2018-06-29T11:37:31.934Z,5338.13
2018-06-29T11:38:31.942Z,5473.13
2018-06-29T11:39:31.946Z,5630.63
2018-06-29T11:40:31.952Z,5315.63
2018-06-29T11:41:31.959Z,4950.00
2018-06-29T11:42:32.005Z,4933.13
2018-06-29T11:43:31.972Z,5124.38
2018-06-29T11:44:31.978Z,5169.38
2018-06-29T11:45:31.981Z,5242.50
2018-06-29T11:46:31.991Z,5343.75
2018-06-29T11:47:31.997Z,5349.38
2018-06-29T11:48:32.034Z,5428.13
2018-06-29T11:49:32.015Z,4275.00
2018-06-29T11:50:32.025Z,1198.13
2018-06-29T11:51:32.072Z,4786.88
2018-06-29T11:52:32.043Z,5439.38
2018-06-29T11:53:32.046Z,5461.88
2018-06-29T11:54:32.059Z,5596.88
2018-06-29T11:55:32.058Z,5602.50
2018-06-29T11:56:32.065Z,5703.75
2018-06-29T11:57:32.065Z,2070.00
2018-06-29T11:58:32.080Z,4573.13
2018-06-29T11:59:32.085Z,1063.13
2018-06-29T12:00:32.148Z,821.25
2018-06-29T12:01:32.100Z,810.00
2018-06-29T12:02:32.103Z,922.50
2018-06-29T12:03:32.105Z,1243.13
2018-06-29T12:04:32.109Z,5315.63
2018-06-29T12:05:32.116Z,4882.50
2018-06-29T12:06:32.115Z,5124.38
2018-06-29T12:07:32.176Z,5428.13
2018-06-29T12:08:32.124Z,5163.75
2018-06-29T12:09:32.125Z,5270.63
2018-06-29T12:10:32.138Z,5574.38
2018-06-29T12:11:32.137Z,5557.50
2018-06-29T12:12:32.137Z,990.00
2018-06-29T12:13:32.161Z,922.50
2018-06-29T12:14:32.151Z,855.00
2018-06-29T12:15:32.154Z,849.38
2018-06-29T12:16:32.342Z,849.38
2018-06-29T12:17:32.170Z,905.63
2018-06-29T12:18:32.167Z,1282.50
2018-06-29T12:19:32.176Z,5090.63
2018-06-29T12:20:32.176Z,1372.50
2018-06-29T12:21:32.177Z,2227.50
2018-06-29T12:22:32.183Z,1580.63
2018-06-29T12:23:32.182Z,5034.38
2018-06-29T12:24:32.177Z,5208.75
2018-06-29T12:25:32.464Z,5484.38
2018-06-29T12:26:32.186Z,4646.25
2018-06-29T12:27:32.186Z,1873.13
2018-06-29T12:28:32.192Z,4651.88
2018-06-29T12:29:32.196Z,5394.38
2018-06-29T12:30:32.192Z,5276.25
2018-06-29T12:31:32.202Z,4038.75
2018-06-29T12:32:32.199Z,1816.88
2018-06-29T12:33:32.205Z,2306.25
2018-06-29T12:34:32.234Z,1254.38
2018-06-29T12:35:32.208Z,1091.25
2018-06-29T12:36:32.222Z,995.63
2018-06-29T12:37:32.226Z,950.63
2018-06-29T12:38:32.224Z,945.00
2018-06-29T12:39:32.230Z,950.63
2018-06-29T12:40:32.231Z,984.38
2018-06-29T12:41:32.234Z,1102.50